createdAt,value
2019-02-05T00:00:54.962Z,-0.17
2019-02-05T00:03:26.957Z,-0.16
2019-02-05T00:05:58.953Z,-0.22
2019-02-05T00:08:30.925Z,-0.24
2019-02-05T00:11:04.586Z,-0.31
2019-02-05T00:13:36.643Z,-0.29
2019-02-05T00:16:08.632Z,-0.30
2019-02-05T00:18:40.593Z,-0.37
2019-02-05T00:21:12.610Z,-0.37
2019-02-05T00:23:44.572Z,-0.36
2019-02-05T00:26:16.576Z,-0.38
2019-02-05T00:28:48.764Z,-0.37
2019-02-05T00:31:20.364Z,-0.35
2019-02-05T00:33:52.337Z,-0.38
2019-02-05T00:36:24.377Z,-0.33
2019-02-05T00:38:56.344Z,-0.31
2019-02-05T00:41:41.125Z,-0.33
2019-02-05T00:44:13.091Z,-0.29
2019-02-05T00:46:45.104Z,-0.20
2019-02-05T00:49:17.072Z,-0.22
2019-02-05T00:51:49.631Z,-0.15
2019-02-05T00:54:21.647Z,-0.16
2019-02-05T00:56:55.584Z,-0.19
2019-02-05T00:59:27.564Z,-0.22
2019-02-05T01:01:59.609Z,-0.23
2019-02-05T01:04:31.602Z,-0.23
2019-02-05T01:07:03.724Z,-0.29
2019-02-05T01:09:35.715Z,-0.28
2019-02-05T01:12:27.182Z,-0.24
2019-02-05T01:14:59.183Z,-0.24
2019-02-05T01:17:33.126Z,-0.30
2019-02-05T01:20:07.106Z,-0.29
2019-02-05T01:22:39.099Z,-0.33
2019-02-05T01:25:11.198Z,-0.41
2019-02-05T01:27:43.199Z,-0.40
2019-02-05T01:30:17.551Z,-0.35
2019-02-05T01:32:49.860Z,-0.37
2019-02-05T01:36:02.638Z,-0.37
2019-02-05T01:38:34.642Z,-0.39
2019-02-05T01:41:06.676Z,-0.50
2019-02-05T01:43:38.663Z,-0.49
2019-02-05T01:46:12.533Z,-0.55
2019-02-05T01:49:25.353Z,-0.55
2019-02-05T01:51:57.655Z,-0.54
2019-02-05T01:54:29.699Z,-0.53
2019-02-05T01:57:01.686Z,-0.54
2019-02-05T01:59:33.674Z,-0.48
2019-02-05T02:02:05.765Z,-0.52
2019-02-05T02:04:37.986Z,-0.56
2019-02-05T02:07:09.955Z,-0.62
2019-02-05T02:09:41.960Z,-0.63
2019-02-05T02:12:13.982Z,-0.62
2019-02-05T02:14:45.999Z,-0.73
2019-02-05T02:17:19.883Z,-0.78
2019-02-05T02:19:51.904Z,-0.79
2019-02-05T02:22:23.912Z,-0.78
2019-02-05T02:24:55.912Z,-0.83
2019-02-05T02:27:27.934Z,-0.88
2019-02-05T02:29:59.931Z,-0.88
2019-02-05T02:32:31.908Z,-0.97
2019-02-05T02:35:04.149Z,-0.93
2019-02-05T02:37:36.151Z,-0.98
2019-02-05T02:40:08.312Z,-0.98
2019-02-05T02:42:40.499Z,-0.98
2019-02-05T02:45:12.496Z,-1.04
2019-02-05T02:47:44.500Z,-1.08
2019-02-05T02:50:16.765Z,-1.09
2019-02-05T02:52:49.497Z,-1.14
2019-02-05T02:55:21.450Z,-1.17
2019-02-05T02:57:53.437Z,-1.16
2019-02-05T03:00:25.407Z,-1.24
2019-02-05T03:02:57.404Z,-1.27
2019-02-05T03:05:29.782Z,-1.29
2019-02-05T03:08:01.759Z,-1.36
2019-02-05T03:10:33.742Z,-1.43
2019-02-05T03:13:05.704Z,-1.41
2019-02-05T03:15:37.676Z,-1.43
2019-02-05T03:18:09.715Z,-1.49
2019-02-05T03:20:41.706Z,-1.51
2019-02-05T03:23:13.663Z,-1.55
2019-02-05T03:25:45.662Z,-1.58
2019-02-05T03:28:17.670Z,-1.57
2019-02-05T03:30:49.667Z,-1.57
2019-02-05T03:33:23.886Z,-1.58
2019-02-05T03:35:56.029Z,-1.56
2019-02-05T03:38:28.024Z,-1.55
2019-02-05T03:41:04.386Z,-1.47
2019-02-05T03:43:37.917Z,-1.58
2019-02-05T03:46:12.053Z,-1.63
2019-02-05T03:48:45.625Z,-1.53
2019-02-05T03:51:51.168Z,-1.71
2019-02-05T03:54:56.098Z,-1.70
2019-02-05T03:58:15.592Z,-1.66
2019-02-05T04:01:11.350Z,-1.76
2019-02-05T04:04:04.947Z,-1.85
2019-02-05T04:07:08.157Z,-1.82
2019-02-05T04:10:19.163Z,-1.87
2019-02-05T04:13:11.158Z,-1.86
2019-02-05T04:16:14.500Z,-1.95
2019-02-05T04:19:12.651Z,-1.96
2019-02-05T04:22:29.741Z,-2.02
2019-02-05T04:25:43.810Z,-1.99
2019-02-05T04:28:39.910Z,-2.08
2019-02-05T04:31:42.017Z,-2.17
2019-02-05T04:34:52.964Z,-2.22
2019-02-05T04:37:36.216Z,-2.21
2019-02-05T04:40:49.452Z,-2.21
2019-02-05T04:44:01.010Z,-2.20
2019-02-05T04:47:06.183Z,-2.14
2019-02-05T04:50:18.484Z,-2.23
2019-02-05T04:53:17.685Z,-2.22
2019-02-05T04:56:18.810Z,-2.32
2019-02-05T04:59:17.403Z,-2.37
2019-02-05T05:02:31.184Z,-2.40
2019-02-05T05:06:00.385Z,-2.37
2019-02-05T05:08:49.518Z,-2.31
2019-02-05T05:11:21.501Z,-2.37
2019-02-05T05:13:53.461Z,-2.45
2019-02-05T05:16:25.504Z,-2.44
2019-02-05T05:18:57.493Z,-2.45
2019-02-05T05:21:29.488Z,-2.44
2019-02-05T05:24:01.845Z,-2.42
2019-02-05T05:26:33.843Z,-2.40
2019-02-05T05:29:05.875Z,-2.35
2019-02-05T05:31:37.874Z,-2.36
2019-02-05T05:34:09.813Z,-2.35
2019-02-05T05:36:50.415Z,-2.36
2019-02-05T05:39:22.363Z,-2.50
2019-02-05T05:41:54.363Z,-2.47
2019-02-05T05:44:26.347Z,-2.55
2019-02-05T05:46:58.356Z,-2.53
2019-02-05T05:49:30.324Z,-2.65
2019-02-05T05:52:02.314Z,-2.67
2019-02-05T05:54:34.279Z,-2.59
2019-02-05T05:57:06.260Z,-2.60
2019-02-05T05:59:38.211Z,-2.63
2019-02-05T06:02:10.388Z,-2.57
2019-02-05T06:04:42.381Z,-2.61
2019-02-05T06:07:14.550Z,-2.60
2019-02-05T06:09:46.481Z,-2.64
2019-02-05T06:12:18.954Z,-2.69
2019-02-05T06:14:51.190Z,-2.73
2019-02-05T06:17:23.396Z,-2.85
2019-02-05T06:19:55.377Z,-2.86
2019-02-05T06:22:29.286Z,-2.85
2019-02-05T06:25:01.275Z,-2.85
2019-02-05T06:27:33.560Z,-2.76
2019-02-05T06:30:07.477Z,-2.75
2019-02-05T06:32:39.449Z,-2.80
2019-02-05T06:35:12.467Z,-2.84
2019-02-05T06:37:44.465Z,-2.88
2019-02-05T06:40:17.920Z,-2.83
2019-02-05T06:42:50.004Z,-2.73
2019-02-05T06:45:21.979Z,-2.65
2019-02-05T06:47:53.955Z,-2.61
2019-02-05T06:50:25.964Z,-2.63
2019-02-05T06:52:58.253Z,-2.61
2019-02-05T06:55:30.350Z,-2.64
2019-02-05T06:58:02.305Z,-2.65
2019-02-05T07:00:34.435Z,-2.63
2019-02-05T07:03:06.415Z,-2.66
2019-02-05T07:05:38.894Z,-2.68
2019-02-05T07:08:10.865Z,-2.67
2019-02-05T07:10:42.836Z,-2.64
2019-02-05T07:13:14.897Z,-2.64
2019-02-05T07:15:46.874Z,-2.57
2019-02-05T07:18:19.231Z,-2.61
2019-02-05T07:20:51.227Z,-2.44
2019-02-05T07:23:23.210Z,-2.29
2019-02-05T07:25:55.195Z,-2.08
2019-02-05T07:28:27.132Z,-1.89
2019-02-05T07:30:59.305Z,-1.75
2019-02-05T07:33:31.260Z,-1.57
2019-02-05T07:36:03.276Z,-1.37
2019-02-05T07:38:35.254Z,-1.16
2019-02-05T07:41:07.232Z,-1.03
2019-02-05T07:43:39.188Z,-0.97
2019-02-05T07:46:11.614Z,-0.82
2019-02-05T07:48:43.563Z,-0.72
2019-02-05T07:51:15.552Z,-0.75
2019-02-05T07:53:47.544Z,-0.62
2019-02-05T07:56:19.521Z,-0.58
2019-02-05T07:58:51.529Z,-0.61
2019-02-05T08:01:23.487Z,-0.34
2019-02-05T08:03:55.464Z,-0.14
2019-02-05T08:06:27.430Z,-0.07
2019-02-05T08:08:59.396Z,0.03
2019-02-05T08:11:31.410Z,-0.10
2019-02-05T08:14:06.209Z,-0.05
2019-02-05T08:16:38.281Z,0.14
2019-02-05T08:19:10.316Z,0.33
2019-02-05T08:21:42.367Z,0.37
2019-02-05T08:24:14.376Z,0.53
2019-02-05T08:26:46.421Z,0.58
2019-02-05T08:29:21.711Z,0.65
2019-02-05T08:31:52.323Z,0.86
2019-02-05T08:34:24.309Z,1.18
2019-02-05T08:36:56.324Z,1.30
2019-02-05T08:39:28.297Z,0.91
2019-02-05T08:42:02.201Z,0.99
2019-02-05T08:44:34.195Z,1.16
2019-02-05T08:47:06.194Z,1.23
2019-02-05T08:49:38.183Z,1.44
2019-02-05T08:52:10.173Z,1.59
2019-02-05T08:54:44.078Z,1.52
2019-02-05T08:57:16.038Z,1.67
2019-02-05T08:59:48.079Z,1.97
2019-02-05T09:02:20.061Z,2.13
2019-02-05T09:04:54.055Z,2.33
2019-02-05T09:07:26.520Z,2.29
2019-02-05T09:09:58.513Z,2.40
2019-02-05T09:12:30.508Z,2.53
2019-02-05T09:15:02.742Z,2.51
2019-02-05T09:17:34.792Z,2.63
2019-02-05T09:20:09.161Z,2.62
2019-02-05T09:22:41.140Z,2.78
2019-02-05T09:25:13.589Z,2.98
2019-02-05T09:27:45.546Z,3.16
2019-02-05T09:30:19.835Z,3.35
2019-02-05T09:32:53.445Z,3.30
2019-02-05T09:35:25.453Z,3.52
2019-02-05T09:37:58.003Z,3.52
2019-02-05T09:40:30.956Z,3.59
2019-02-05T09:43:02.952Z,3.66
2019-02-05T09:45:34.948Z,4.02
2019-02-05T09:48:06.928Z,4.12
2019-02-05T09:50:44.749Z,4.28
2019-02-05T09:53:12.797Z,4.12
2019-02-05T09:55:44.784Z,4.13
2019-02-05T09:58:16.740Z,4.44
2019-02-05T10:00:48.733Z,4.37
2019-02-05T10:03:20.682Z,4.47
2019-02-05T10:05:52.787Z,4.38
2019-02-05T10:08:24.756Z,4.56
2019-02-05T10:10:56.740Z,4.57
2019-02-05T10:13:28.804Z,4.64
2019-02-05T10:16:00.764Z,4.79
2019-02-05T10:18:32.737Z,4.74
2019-02-05T10:21:05.141Z,4.82
2019-02-05T10:23:37.094Z,4.99
2019-02-05T10:26:10.603Z,5.09
2019-02-05T10:28:42.570Z,5.19
2019-02-05T10:31:14.546Z,5.32
2019-02-05T10:33:54.924Z,5.50
2019-02-05T10:36:23.345Z,5.40
2019-02-05T10:38:55.620Z,5.43
2019-02-05T10:41:27.596Z,5.43
2019-02-05T10:43:59.550Z,5.48
2019-02-05T10:46:31.537Z,5.39
2019-02-05T10:49:03.708Z,5.33
2019-02-05T10:51:35.988Z,5.22
2019-02-05T10:54:07.997Z,5.43
2019-02-05T10:56:39.973Z,5.48
2019-02-05T10:59:11.963Z,5.36
2019-02-05T11:01:44.028Z,5.61
2019-02-05T11:04:17.543Z,5.51
2019-02-05T11:06:49.485Z,5.49
2019-02-05T11:09:21.554Z,5.52
2019-02-05T11:11:53.606Z,5.56
2019-02-05T11:14:25.635Z,5.68
2019-02-05T11:16:57.573Z,5.79
2019-02-05T11:19:29.593Z,5.78
2019-02-05T11:22:01.553Z,5.89
2019-02-05T11:24:33.564Z,5.87
2019-02-05T11:27:05.521Z,6.11
2019-02-05T11:29:37.523Z,6.08
2019-02-05T11:32:11.092Z,6.11
2019-02-05T11:34:43.094Z,6.13
2019-02-05T11:37:15.049Z,6.14
2019-02-05T11:39:47.026Z,6.25
2019-02-05T11:42:18.988Z,6.22
2019-02-05T11:44:51.365Z,6.18
2019-02-05T11:47:23.337Z,6.36
2019-02-05T11:49:55.338Z,6.26
2019-02-05T11:52:27.305Z,6.19
2019-02-05T11:54:59.342Z,6.29
2019-02-05T11:57:31.724Z,6.26
2019-02-05T12:00:05.857Z,6.19
2019-02-05T12:02:37.848Z,6.34
2019-02-05T12:05:09.840Z,6.28
2019-02-05T12:07:41.838Z,6.30
2019-02-05T12:10:14.160Z,6.33
2019-02-05T12:12:46.135Z,6.47
2019-02-05T12:15:18.248Z,6.69
2019-02-05T12:17:50.318Z,6.48
2019-02-05T12:20:22.607Z,6.37
2019-02-05T12:22:54.565Z,6.33
2019-02-05T12:25:26.969Z,6.37
2019-02-05T12:27:58.937Z,6.26
2019-02-05T12:30:43.921Z,6.35
2019-02-05T12:33:06.513Z,6.25
2019-02-05T12:35:38.483Z,6.19
2019-02-05T12:38:10.931Z,6.04
2019-02-05T12:40:42.887Z,6.21
2019-02-05T12:43:14.915Z,6.27
2019-02-05T12:45:46.880Z,6.09
2019-02-05T12:48:18.864Z,6.13
2019-02-05T12:50:51.234Z,6.18
2019-02-05T12:53:23.202Z,6.09
2019-02-05T12:55:55.200Z,6.20
2019-02-05T12:58:27.214Z,6.17
2019-02-05T13:01:01.139Z,6.13
2019-02-05T13:03:33.082Z,6.39
2019-02-05T13:06:05.142Z,6.46
2019-02-05T13:08:37.148Z,6.55
2019-02-05T13:11:09.130Z,6.29
2019-02-05T13:13:41.146Z,6.28
2019-02-05T13:16:13.164Z,6.26
2019-02-05T13:18:45.155Z,6.45
2019-02-05T13:21:17.189Z,6.69
2019-02-05T13:23:49.240Z,6.41
2019-02-05T13:26:21.205Z,6.30
2019-02-05T13:28:53.214Z,6.32
2019-02-05T13:31:25.225Z,6.49
2019-02-05T13:33:57.220Z,6.64
2019-02-05T13:36:29.213Z,6.61
2019-02-05T13:39:01.664Z,6.43
2019-02-05T13:41:33.660Z,6.41
2019-02-05T13:44:05.711Z,6.43
2019-02-05T13:46:39.788Z,6.33
2019-02-05T13:49:11.770Z,6.38
2019-02-05T13:51:43.844Z,6.52
2019-02-05T13:54:16.504Z,6.49
2019-02-05T13:56:48.491Z,6.51
2019-02-05T13:59:20.493Z,6.59
2019-02-05T14:01:52.480Z,6.60
2019-02-05T14:04:25.582Z,6.49
2019-02-05T14:06:57.546Z,6.51
2019-02-05T14:09:29.576Z,6.43
2019-02-05T14:12:01.594Z,6.49
2019-02-05T14:14:33.608Z,6.39
2019-02-05T14:17:05.639Z,6.55
2019-02-05T14:19:37.642Z,6.46
2019-02-05T14:22:09.629Z,6.51
2019-02-05T14:24:41.568Z,6.56
2019-02-05T14:27:13.560Z,6.49
2019-02-05T14:29:45.544Z,6.60
2019-02-05T14:32:17.560Z,6.57
2019-02-05T14:34:49.597Z,6.50
2019-02-05T14:37:21.630Z,6.48
2019-02-05T14:39:53.618Z,6.48
2019-02-05T14:42:25.656Z,6.48
2019-02-05T14:44:57.663Z,6.52
2019-02-05T14:47:29.647Z,6.76
2019-02-05T14:50:01.681Z,6.91
2019-02-05T14:52:33.678Z,6.69
2019-02-05T14:55:05.836Z,6.54
2019-02-05T14:57:37.860Z,6.47
2019-02-05T15:00:13.799Z,6.46
2019-02-05T15:02:45.823Z,6.41
2019-02-05T15:05:18.425Z,6.42
2019-02-05T15:07:50.462Z,6.43
2019-02-05T15:10:22.437Z,6.38
2019-02-05T15:12:54.435Z,6.34
2019-02-05T15:15:47.925Z,6.37
2019-02-05T15:18:21.379Z,6.26
2019-02-05T15:20:53.384Z,6.23
2019-02-05T15:23:25.403Z,6.12
2019-02-05T15:25:57.819Z,6.05
2019-02-05T15:28:29.875Z,5.96
2019-02-05T15:31:02.161Z,5.91
2019-02-05T15:33:44.799Z,5.84
2019-02-05T15:36:22.023Z,5.78
2019-02-05T15:38:54.065Z,5.68
2019-02-05T15:41:26.019Z,5.57
2019-02-05T15:44:00.641Z,5.52
2019-02-05T15:46:32.951Z,5.45
2019-02-05T15:49:04.981Z,5.35
2019-02-05T15:51:37.003Z,5.26
2019-02-05T15:54:08.996Z,5.19
2019-02-05T15:56:41.021Z,5.12
2019-02-05T15:59:13.191Z,5.03
2019-02-05T16:01:45.192Z,4.94
2019-02-05T16:04:17.184Z,4.84
2019-02-05T16:06:49.204Z,4.74
2019-02-05T16:09:21.232Z,4.67
2019-02-05T16:11:53.553Z,4.55
2019-02-05T16:14:25.564Z,4.44
2019-02-05T16:16:57.592Z,4.35
2019-02-05T16:19:29.792Z,4.29
2019-02-05T16:22:02.354Z,4.23
2019-02-05T16:24:34.734Z,4.19
2019-02-05T16:27:06.750Z,4.18
2019-02-05T16:29:38.772Z,4.03
2019-02-05T16:32:17.324Z,3.94
2019-02-05T16:34:44.670Z,3.83
2019-02-05T16:37:16.683Z,3.74
2019-02-05T16:39:48.689Z,3.64
2019-02-05T16:42:20.766Z,3.54
2019-02-05T16:44:52.757Z,3.42
2019-02-05T16:47:24.779Z,3.32
2019-02-05T16:49:56.806Z,3.25
2019-02-05T16:52:28.833Z,3.16
2019-02-05T16:55:00.814Z,3.02
2019-02-05T16:57:32.826Z,2.99
2019-02-05T17:00:11.129Z,2.91
2019-02-05T17:02:43.162Z,2.86
2019-02-05T17:05:16.013Z,2.80
2019-02-05T17:07:48.040Z,2.70
2019-02-05T17:10:20.146Z,2.66
2019-02-05T17:12:52.430Z,2.62
2019-02-05T17:15:24.434Z,2.56
2019-02-05T17:17:56.542Z,2.46
2019-02-05T17:20:29.180Z,2.37
2019-02-05T17:23:01.255Z,2.29
2019-02-05T17:25:35.811Z,2.18
2019-02-05T17:28:07.316Z,2.05
2019-02-05T17:30:39.550Z,1.99
2019-02-05T17:33:11.596Z,1.93
2019-02-05T17:35:43.633Z,1.94
2019-02-05T17:38:15.800Z,1.93
2019-02-05T17:40:47.847Z,1.90
2019-02-05T17:43:19.917Z,1.87
2019-02-05T17:45:52.432Z,1.83
2019-02-05T17:48:24.505Z,1.80
2019-02-05T17:50:56.637Z,1.71
2019-02-05T17:53:28.719Z,1.66
2019-02-05T17:56:00.754Z,1.64
2019-02-05T17:58:32.736Z,1.63
2019-02-05T18:01:10.254Z,1.64
2019-02-05T18:03:42.270Z,1.59
2019-02-05T18:06:14.344Z,1.51
2019-02-05T18:08:46.371Z,1.44
2019-02-05T18:11:18.412Z,1.46
2019-02-05T18:13:50.440Z,1.38
2019-02-05T18:16:22.461Z,1.37
2019-02-05T18:18:54.564Z,1.32
2019-02-05T18:21:27.557Z,1.27
2019-02-05T18:23:59.605Z,1.24
2019-02-05T18:26:31.699Z,1.22
2019-02-05T18:29:04.279Z,1.15
2019-02-05T18:31:36.357Z,1.11
2019-02-05T18:34:08.384Z,1.05
2019-02-05T18:36:40.906Z,0.92
2019-02-05T18:39:12.963Z,0.96
2019-02-05T18:41:45.098Z,1.00
2019-02-05T18:44:17.189Z,0.98
2019-02-05T18:46:49.269Z,0.98
2019-02-05T18:49:21.666Z,0.95
2019-02-05T18:51:53.753Z,0.90
2019-02-05T18:54:25.782Z,0.82
2019-02-05T18:56:57.990Z,0.77
2019-02-05T18:59:31.947Z,0.68
2019-02-05T19:02:04.657Z,0.65
2019-02-05T19:04:36.644Z,0.66
2019-02-05T19:07:08.744Z,0.63
2019-02-05T19:09:40.802Z,0.57
2019-02-05T19:12:12.852Z,0.53
2019-02-05T19:14:45.021Z,0.53
2019-02-05T19:17:17.085Z,0.47
2019-02-05T19:19:49.188Z,0.45
2019-02-05T19:22:21.145Z,0.47
2019-02-05T19:24:57.689Z,0.45
2019-02-05T19:27:29.744Z,0.38
2019-02-05T19:30:01.880Z,0.46
2019-02-05T19:32:34.020Z,0.43
2019-02-05T19:35:06.630Z,0.37
2019-02-05T19:37:38.783Z,0.37
2019-02-05T19:40:10.873Z,0.31
2019-02-05T19:42:42.953Z,0.29
2019-02-05T19:45:33.195Z,0.27
2019-02-05T19:48:07.042Z,0.28
2019-02-05T19:50:39.344Z,0.27
2019-02-05T19:53:11.503Z,0.24
2019-02-05T19:55:44.388Z,0.25
2019-02-05T19:58:16.630Z,0.20
2019-02-05T20:00:48.761Z,0.15
2019-02-05T20:03:21.091Z,0.09
2019-02-05T20:05:53.263Z,0.12
2019-02-05T20:08:26.905Z,0.15
2019-02-05T20:10:59.214Z,0.15
2019-02-05T20:13:39.897Z,0.14
2019-02-05T20:16:05.360Z,0.18
2019-02-05T20:18:37.385Z,0.11
2019-02-05T20:21:09.553Z,0.03
2019-02-05T20:23:41.544Z,-0.03
2019-02-05T20:26:13.640Z,-0.07
2019-02-05T20:28:45.677Z,-0.09
2019-02-05T20:31:17.814Z,-0.15
2019-02-05T20:33:50.360Z,-0.13
2019-02-05T20:36:22.543Z,-0.11
2019-02-05T20:38:54.715Z,-0.18
2019-02-05T20:41:26.805Z,-0.09
2019-02-05T20:44:00.297Z,0.06
2019-02-05T20:46:32.405Z,-0.01
2019-02-05T20:49:04.484Z,-0.12
2019-02-05T20:51:36.785Z,-0.15
2019-02-05T20:54:09.263Z,-0.14
2019-02-05T20:56:41.370Z,-0.10
2019-02-05T20:59:13.484Z,-0.06
2019-02-05T21:01:45.629Z,-0.09
2019-02-05T21:04:18.835Z,-0.17
2019-02-05T21:06:51.281Z,-0.19
2019-02-05T21:09:23.436Z,-0.25
2019-02-05T21:11:55.548Z,-0.35
2019-02-05T21:14:27.665Z,-0.39
2019-02-05T21:16:59.681Z,-0.45
2019-02-05T21:19:32.191Z,-0.46
2019-02-05T21:22:04.415Z,-0.46
2019-02-05T21:24:36.567Z,-0.47
2019-02-05T21:27:08.667Z,-0.56
2019-02-05T21:29:43.445Z,-0.64
2019-02-05T21:32:15.801Z,-0.60
2019-02-05T21:34:47.814Z,-0.61
2019-02-05T21:37:19.988Z,-0.63
2019-02-05T21:40:02.119Z,-0.69
2019-02-05T21:42:26.268Z,-0.74
2019-02-05T21:44:58.715Z,-0.79
2019-02-05T21:47:30.784Z,-0.79
2019-02-05T21:50:05.358Z,-0.76
2019-02-05T21:52:37.509Z,-0.76
2019-02-05T21:55:10.415Z,-0.82
2019-02-05T21:57:42.728Z,-0.76
2019-02-05T22:00:19.977Z,-0.72
2019-02-05T22:02:52.418Z,-0.77
2019-02-05T22:05:25.209Z,-0.91
2019-02-05T22:07:57.370Z,-0.91
2019-02-05T22:10:29.441Z,-0.91
2019-02-05T22:13:03.314Z,-0.94
2019-02-05T22:15:36.890Z,-0.93
2019-02-05T22:18:08.980Z,-0.92
2019-02-05T22:20:41.236Z,-0.92
2019-02-05T22:23:13.567Z,-0.91
2019-02-05T22:25:47.373Z,-1.07
2019-02-05T22:28:20.628Z,-1.00
2019-02-05T22:30:54.132Z,-1.07
2019-02-05T22:33:28.048Z,-1.12
2019-02-05T22:36:00.072Z,-1.09
2019-02-05T22:38:32.280Z,-0.98
2019-02-05T22:41:04.355Z,-1.00
2019-02-05T22:43:36.412Z,-1.06
2019-02-05T22:46:08.451Z,-1.02
2019-02-05T22:48:41.049Z,-1.10
2019-02-05T22:51:13.184Z,-1.12
2019-02-05T22:53:45.197Z,-1.06
2019-02-05T22:56:17.239Z,-1.00
2019-02-05T22:58:49.412Z,-0.99
2019-02-05T23:01:51.389Z,-1.01
2019-02-05T23:05:23.715Z,-1.02
2019-02-05T23:07:55.842Z,-1.10
2019-02-05T23:11:04.998Z,-1.16
2019-02-05T23:13:37.307Z,-1.15
2019-02-05T23:16:09.345Z,-1.17
2019-02-05T23:18:41.443Z,-1.27
2019-02-05T23:21:13.439Z,-1.13
2019-02-05T23:23:45.442Z,-1.16
2019-02-05T23:26:19.388Z,-1.10
2019-02-05T23:28:51.400Z,-1.17
2019-02-05T23:31:23.401Z,-0.89
2019-02-05T23:33:56.526Z,-1.02
2019-02-05T23:36:28.510Z,-1.03
2019-02-05T23:39:00.863Z,-1.17
2019-02-05T23:41:33.971Z,-1.20
2019-02-05T23:44:06.280Z,-1.38
2019-02-05T23:46:38.272Z,-1.38
2019-02-05T23:49:10.502Z,-1.45
2019-02-05T23:51:42.566Z,-1.26
2019-02-05T23:54:14.581Z,-1.26
2019-02-05T23:56:46.582Z,-1.37
2019-02-05T23:59:18.598Z,-1.38
